Time;durP1;ratioP1;P1;durP2;ratioP2;P2;SDS_P1;SDS_P2;PMS_P1;PMS_P2;Temp;Humidity;BMP_temperature;BMP_pressure;BME280_temperature;BME280_humidity;BME280_pressure;Samples;Min_cycle;Max_cycle;Signal;HPM_P1;HPM_P2
2023/07/23 00:02:17;;;;;;;3.10;1.70;;;;;;;18.45;93.76;100347.81;5000711;28;20072;-64
2023/07/23 00:04:42;;;;;;;4.95;1.83;;;;;;;18.28;93.64;100354.31;5006682;28;20425;-65
2023/07/23 00:07:08;;;;;;;2.80;1.77;;;;;;;18.45;93.35;100352.50;5004231;28;20060;-64
2023/07/23 00:09:33;;;;;;;3.28;1.85;;;;;;;18.28;94.30;100346.13;5007320;28;20113;-64
2023/07/23 00:11:59;;;;;;;2.95;1.77;;;;;;;18.26;95.03;100334.09;5005436;28;20030;-65
2023/07/23 00:14:24;;;;;;;3.70;2.15;;;;;;;18.25;94.81;100329.84;5005949;28;20086;-65
2023/07/23 00:16:50;;;;;;;5.63;2.47;;;;;;;18.21;95.34;100331.84;4996088;28;20022;-63
2023/07/23 00:19:19;;;;;;;4.68;1.88;;;;;;;18.31;94.31;100323.50;5009395;28;20494;-64
2023/07/23 00:21:48;;;;;;;4.10;1.98;;;;;;;18.20;94.77;100322.91;4998442;28;20038;-64
2023/07/23 00:24:15;;;;;;;2.45;1.40;;;;;;;18.15;94.69;100322.59;4999547;28;20030;-65
2023/07/23 00:26:40;;;;;;;3.90;1.83;;;;;;;18.18;94.60;100317.09;5007316;28;20112;-64
2023/07/23 00:29:06;;;;;;;2.33;1.40;;;;;;;18.05;95.38;100324.31;5070410;28;20591;-65
2023/07/23 00:31:31;;;;;;;2.50;1.65;;;;;;;18.08;95.94;100311.81;5073733;28;20116;-64
2023/07/23 00:33:57;;;;;;;2.83;1.88;;;;;;;18.22;95.30;100314.31;5008468;28;20037;-64
2023/07/23 00:36:22;;;;;;;4.22;2.05;;;;;;;18.24;94.76;100304.53;4998799;28;20466;-65
2023/07/23 00:38:49;;;;;;;2.50;1.73;;;;;;;18.24;94.27;100301.81;5092594;28;20048;-65
2023/07/23 00:41:15;;;;;;;4.30;2.47;;;;;;;18.24;94.93;100309.97;5070643;28;20136;-63
2023/07/23 00:43:40;;;;;;;4.75;2.08;;;;;;;18.19;95.61;100301.50;5008140;28;20093;-65
2023/07/23 00:46:07;;;;;;;2.83;1.75;;;;;;;18.22;95.89;100297.94;4992704;28;20032;-63
2023/07/23 00:48:33;;;;;;;2.90;1.55;;;;;;;18.21;95.86;100302.66;4994312;28;20035;-64
2023/07/23 00:50:58;;;;;;;8.52;2.22;;;;;;;18.22;95.28;100293.25;5008970;28;20055;-64
2023/07/23 00:53:25;;;;;;;3.45;2.00;;;;;;;18.18;95.68;100283.59;5008068;28;20034;-63
2023/07/23 00:55:52;;;;;;;2.85;1.80;;;;;;;17.95;96.38;100281.63;5007952;28;20030;-64
2023/07/23 00:58:18;;;;;;;6.47;2.30;;;;;;;17.83;96.78;100277.53;5001216;28;20379;-64
2023/07/23 01:00:44;;;;;;;4.18;1.73;;;;;;;17.88;95.91;100279.81;5002295;28;20030;-63
2023/07/23 01:03:09;;;;;;;2.35;1.77;;;;;;;18.02;95.56;100270.66;5004604;28;20040;-63
2023/07/23 01:05:36;;;;;;;4.53;2.33;;;;;;;18.04;96.03;100271.75;5075778;28;20482;-65
2023/07/23 01:08:03;;;;;;;5.82;2.45;;;;;;;18.00;96.30;100256.66;5076348;28;20034;-64
2023/07/23 01:10:31;;;;;;;5.20;2.53;;;;;;;18.14;96.05;100264.56;5063098;28;20475;-63
2023/07/23 01:12:57;;;;;;;2.53;1.95;;;;;;;17.99;95.83;100260.56;5008126;28;20028;-63
2023/07/23 01:15:22;;;;;;;3.20;1.95;;;;;;;18.00;96.49;100246.50;5063363;28;20033;-62
2023/07/23 01:17:50;;;;;;;5.22;2.20;;;;;;;18.12;96.11;100250.59;5066580;28;20562;-62
2023/07/23 01:20:16;;;;;;;3.85;2.00;;;;;;;18.17;95.46;100249.34;4995854;28;20522;-64
2023/07/23 01:22:41;;;;;;;3.45;2.35;;;;;;;18.23;94.38;100253.16;5007642;28;20044;-63
2023/07/23 01:25:07;;;;;;;3.42;2.08;;;;;;;18.10;95.44;100246.75;5008114;28;20085;-64
2023/07/23 01:27:33;;;;;;;3.15;2.00;;;;;;;17.97;95.95;100239.16;5051182;28;20112;-63
2023/07/23 01:29:59;;;;;;;6.18;2.53;;;;;;;17.96;96.08;100228.69;5086658;28;20116;-64
2023/07/23 01:32:24;;;;;;;3.30;1.85;;;;;;;17.94;96.42;100237.25;5001540;28;20046;-64
2023/07/23 01:34:50;;;;;;;9.82;2.47;;;;;;;18.21;95.10;100233.72;5007777;28;20049;-65
2023/07/23 01:37:17;;;;;;;4.00;2.35;;;;;;;18.01;95.68;100223.53;5077835;28;20025;-65
2023/07/23 01:39:43;;;;;;;4.57;2.45;;;;;;;17.99;96.16;100234.06;5008192;28;20069;-64
2023/07/23 01:42:12;;;;;;;5.00;2.95;;;;;;;18.03;96.15;100223.88;5074928;28;20118;-63
2023/07/23 01:44:38;;;;;;;5.75;2.63;;;;;;;18.08;95.80;100233.53;5067829;28;20521;-64
2023/07/23 01:47:04;;;;;;;6.35;2.90;;;;;;;18.06;95.89;100227.72;4992978;28;20064;-63
2023/07/23 01:49:30;;;;;;;7.47;2.70;;;;;;;18.08;96.25;100227.31;5073706;28;20113;-64
2023/07/23 01:51:55;;;;;;;7.90;3.20;;;;;;;18.13;96.52;100218.66;5007459;28;20112;-63
2023/07/23 01:54:24;;;;;;;5.20;2.08;;;;;;;18.13;96.56;100221.38;5069653;28;20022;-63
2023/07/23 01:56:49;;;;;;;4.88;2.58;;;;;;;18.19;95.90;100209.59;5006520;28;20034;-63
2023/07/23 01:59:15;;;;;;;5.78;2.88;;;;;;;18.20;95.83;100207.63;5064538;28;20049;-64
2023/07/23 02:01:40;;;;;;;6.00;2.47;;;;;;;18.19;95.92;100217.00;5055536;28;20058;-64
2023/07/23 02:04:05;;;;;;;2.83;2.05;;;;;;;17.94;97.41;100212.72;4997574;28;20104;-64
2023/07/23 02:06:31;;;;;;;4.70;2.63;;;;;;;17.98;97.48;100205.28;5091441;28;20030;-64
2023/07/23 02:08:56;;;;;;;2.92;2.10;;;;;;;18.12;96.00;100204.25;5008292;28;20038;-65
2023/07/23 02:11:22;;;;;;;4.13;2.47;;;;;;;18.19;96.01;100203.38;5063550;28;20034;-64
2023/07/23 02:13:47;;;;;;;8.32;3.35;;;;;;;18.05;96.27;100196.22;5061634;28;20448;-64
2023/07/23 02:16:17;;;;;;;3.33;2.45;;;;;;;17.96;96.55;100199.47;5074984;28;20044;-64
2023/07/23 02:18:42;;;;;;;4.85;2.97;;;;;;;17.89;97.16;100199.59;5010297;28;20105;-65
2023/07/23 02:21:08;;;;;;;3.90;2.20;;;;;;;17.82;98.49;100190.78;5075078;28;20116;-64
2023/07/23 02:23:33;;;;;;;4.50;2.28;;;;;;;17.86;98.34;100197.72;5010369;28;20362;-64
2023/07/23 02:25:59;;;;;;;6.80;2.70;;;;;;;18.01;97.84;100193.56;5078172;28;20038;-63
2023/07/23 02:28:24;;;;;;;3.70;2.38;;;;;;;17.98;97.41;100188.16;5010055;28;20034;-63
2023/07/23 02:30:57;;;;;;;3.95;2.30;;;;;;;18.08;97.11;100181.00;4999127;28;20382;-63
2023/07/23 02:33:22;;;;;;;3.15;1.85;;;;;;;18.03;97.58;100190.41;5010386;28;20042;-63
2023/07/23 02:35:48;;;;;;;6.85;2.38;;;;;;;18.22;96.16;100184.22;5010784;28;20037;-65
2023/07/23 02:38:13;;;;;;;4.40;2.30;;;;;;;18.15;96.04;100181.63;5001058;28;20479;-65
2023/07/23 02:40:39;;;;;;;6.43;2.80;;;;;;;18.18;96.35;100180.78;5007037;28;20042;-64
2023/07/23 02:43:05;;;;;;;6.72;3.00;;;;;;;18.13;96.28;100177.78;5010101;28;20379;-64
2023/07/23 02:45:30;;;;;;;5.10;2.65;;;;;;;18.23;95.38;100168.63;5004313;28;20514;-65
2023/07/23 02:47:56;;;;;;;6.70;2.78;;;;;;;17.90;96.55;100168.44;5010574;28;20029;-64
2023/07/23 02:50:21;;;;;;;4.07;2.42;;;;;;;17.90;96.56;100165.69;5010841;28;20045;-63
2023/07/23 02:52:47;;;;;;;6.75;2.90;;;;;;;17.87;97.42;100163.03;5009229;28;20128;-63
2023/07/23 02:55:12;;;;;;;7.90;2.83;;;;;;;17.90;97.02;100168.44;5056083;28;20049;-64
2023/07/23 02:57:37;;;;;;;4.30;2.60;;;;;;;17.86;97.87;100170.47;5091326;28;20030;-64
2023/07/23 03:00:04;;;;;;;6.25;2.42;;;;;;;18.06;96.82;100161.56;5078890;28;20160;-64
2023/07/23 03:02:30;;;;;;;6.45;2.88;;;;;;;17.85;97.62;100162.69;5070897;28;20057;-63
2023/07/23 03:04:55;;;;;;;4.35;2.58;;;;;;;18.01;96.71;100160.84;5063119;28;20034;-63
2023/07/23 03:07:21;;;;;;;4.38;1.85;;;;;;;17.75;98.29;100148.06;5048283;28;20026;-64
2023/07/23 03:09:46;;;;;;;3.63;2.60;;;;;;;17.75;98.48;100148.06;5003769;28;20062;-64
2023/07/23 03:12:12;;;;;;;6.60;2.40;;;;;;;17.78;98.74;100141.03;4997912;28;20117;-64
2023/07/23 03:14:37;;;;;;;7.43;3.65;;;;;;;17.52;98.92;100142.63;5007857;28;20398;-64
2023/07/23 03:17:03;;;;;;;3.88;2.58;;;;;;;17.64;98.92;100139.31;5061597;28;20398;-64
2023/07/23 03:19:28;;;;;;;10.18;2.50;;;;;;;17.78;97.78;100130.91;5060803;28;20045;-64
2023/07/23 03:21:54;;;;;;;4.10;1.85;;;;;;;17.85;98.26;100136.22;4997316;28;20044;-64
2023/07/23 03:24:19;;;;;;;4.47;2.38;;;;;;;18.07;97.08;100130.38;5010087;28;20021;-64
2023/07/23 03:26:45;;;;;;;6.00;2.60;;;;;;;17.92;96.76;100127.91;5009847;28;20034;-64
2023/07/23 03:29:10;;;;;;;5.65;2.40;;;;;;;17.76;98.55;100130.56;5009361;28;20083;-63
2023/07/23 03:31:35;;;;;;;3.90;2.38;;;;;;;17.81;98.02;100121.09;5010392;28;20057;-64
2023/07/23 03:34:01;;;;;;;3.92;2.38;;;;;;;17.92;97.26;100119.72;5009674;28;20025;-64
2023/07/23 03:36:27;;;;;;;7.78;2.38;;;;;;;17.84;97.76;100112.13;5072595;28;20042;-64
2023/07/23 03:38:52;;;;;;;5.45;2.55;;;;;;;17.90;96.45;100110.47;5000476;28;20026;-64
2023/07/23 03:41:18;;;;;;;3.53;1.83;;;;;;;17.62;98.79;100119.13;5010091;28;20514;-64
2023/07/23 03:43:44;;;;;;;3.10;1.80;;;;;;;17.65;98.30;100107.41;5008554;28;20034;-64
2023/07/23 03:46:09;;;;;;;2.72;1.92;;;;;;;17.67;99.28;100105.03;5063509;28;21033;-65
2023/07/23 03:48:35;;;;;;;4.22;2.40;;;;;;;17.96;97.71;100109.53;5002090;28;20049;-64
2023/07/23 03:51:00;;;;;;;4.97;2.20;;;;;;;17.82;97.32;100112.53;5055924;28;21186;-65
2023/07/23 03:53:26;;;;;;;3.10;2.20;;;;;;;17.98;96.83;100107.16;4998068;28;20406;-64
2023/07/23 03:55:51;;;;;;;4.55;2.22;;;;;;;17.89;97.34;100115.13;5001493;28;20022;-63
2023/07/23 03:58:17;;;;;;;2.95;2.03;;;;;;;17.85;98.12;100108.97;5068825;28;20518;-64
2023/07/23 04:00:42;;;;;;;5.00;2.25;;;;;;;17.86;98.59;100109.75;5002799;28;20610;-63
2023/07/23 04:03:08;;;;;;;3.67;2.33;;;;;;;18.06;97.07;100115.22;5078415;28;20040;-62
2023/07/23 04:05:35;;;;;;;4.43;2.55;;;;;;;17.83;96.58;100105.91;5005788;28;20038;-63
2023/07/23 04:08:02;;;;;;;4.72;2.33;;;;;;;17.67;98.77;100103.06;5001104;28;20083;-64
2023/07/23 04:10:28;;;;;;;3.08;1.85;;;;;;;17.67;99.50;100103.06;5006075;28;20486;-63
2023/07/23 04:12:53;;;;;;;3.28;2.13;;;;;;;17.80;99.17;100100.50;5071491;28;20055;-63
2023/07/23 04:15:19;;;;;;;2.95;1.80;;;;;;;17.99;97.18;100097.03;5034037;28;20034;-63
2023/07/23 04:17:44;;;;;;;4.80;2.15;;;;;;;18.01;97.36;100091.94;5074022;28;20437;-63
2023/07/23 04:20:10;;;;;;;6.75;2.47;;;;;;;17.96;98.13;100093.19;5066635;28;20451;-63
2023/07/23 04:22:35;;;;;;;3.95;2.13;;;;;;;18.01;97.54;100100.13;5046215;28;20491;-64
2023/07/23 04:25:01;;;;;;;3.03;2.25;;;;;;;18.09;97.03;100096.06;5005088;28;20041;-64
2023/07/23 04:27:26;;;;;;;3.75;2.35;;;;;;;18.09;97.22;100098.03;5003154;28;20026;-63
2023/07/23 04:29:53;;;;;;;3.50;2.30;;;;;;;18.03;97.32;100098.53;5073451;28;20214;-62
2023/07/23 04:32:19;;;;;;;3.53;1.83;;;;;;;17.97;97.95;100100.19;5064436;28;20045;-64
2023/07/23 04:34:45;;;;;;;5.57;2.17;;;;;;;18.05;97.44;100095.38;5040928;28;20034;-64
2023/07/23 04:37:11;;;;;;;6.68;2.30;;;;;;;18.03;97.37;100093.06;5007453;28;20392;-64
2023/07/23 04:39:37;;;;;;;3.67;2.33;;;;;;;18.14;97.10;100089.38;5008588;28;20063;-63
2023/07/23 04:42:03;;;;;;;4.72;2.53;;;;;;;18.14;96.67;100089.38;5007208;28;20542;-62
2023/07/23 04:44:28;;;;;;;3.60;2.30;;;;;;;18.00;97.34;100096.63;5006693;28;20030;-64
2023/07/23 04:46:54;;;;;;;3.78;2.08;;;;;;;17.89;98.41;100092.56;5002042;28;20137;-64
2023/07/23 04:49:19;;;;;;;3.90;2.40;;;;;;;18.03;97.28;100093.06;5000655;28;20036;-64
2023/07/23 04:51:45;;;;;;;5.18;2.25;;;;;;;18.07;96.78;100094.94;5000480;28;20045;-63
2023/07/23 04:54:10;;;;;;;3.28;1.98;;;;;;;17.71;98.45;100081.22;5001381;28;20048;-64
2023/07/23 04:56:37;;;;;;;4.78;2.45;;;;;;;17.72;99.28;100093.66;5007800;28;20057;-64
2023/07/23 04:59:02;;;;;;;3.17;1.98;;;;;;;17.95;98.66;100088.94;4995247;28;20042;-63
2023/07/23 05:01:28;;;;;;;5.20;2.78;;;;;;;18.12;96.97;100089.03;5068126;28;20034;-63
2023/07/23 05:03:53;;;;;;;4.90;1.85;;;;;;;18.06;97.18;100080.53;5006173;28;20057;-63
2023/07/23 05:06:18;;;;;;;4.47;2.08;;;;;;;17.93;97.77;100080.41;5007740;28;20036;-65
2023/07/23 05:08:44;;;;;;;2.95;2.45;;;;;;;17.83;98.20;100067.75;4999869;28;20034;-63
2023/07/23 05:11:09;;;;;;;4.45;2.50;;;;;;;17.89;98.62;100074.25;5004758;28;20100;-63
2023/07/23 05:13:35;;;;;;;4.30;2.35;;;;;;;18.12;97.98;100076.16;5006306;28;20038;-63
2023/07/23 05:16:05;;;;;;;3.30;2.00;;;;;;;17.81;99.17;100075.56;5002802;28;20068;-65
2023/07/23 05:18:31;;;;;;;3.30;1.98;;;;;;;17.98;98.91;100074.47;5001589;28;20041;-64
2023/07/23 05:20:56;;;;;;;3.60;1.58;;;;;;;17.90;98.49;100067.59;5003599;28;20393;-63
2023/07/23 05:23:22;;;;;;;3.45;2.08;;;;;;;17.92;97.86;100065.22;5007293;28;20063;-64
2023/07/23 05:25:48;;;;;;;2.95;1.75;;;;;;;17.90;98.71;100073.06;5073765;28;20044;-64
2023/07/23 05:28:13;;;;;;;4.47;2.50;;;;;;;18.04;97.78;100074.75;4997190;28;20064;-63
2023/07/23 05:30:39;;;;;;;2.50;2.03;;;;;;;18.09;98.06;100073.50;5008659;28;20147;-63
2023/07/23 05:33:05;;;;;;;5.55;2.10;;;;;;;18.04;98.01;100066.56;5007649;28;20117;-62
2023/07/23 05:35:30;;;;;;;4.93;2.72;;;;;;;17.95;98.72;100071.81;4998708;28;20070;-63
2023/07/23 05:37:56;;;;;;;2.45;1.73;;;;;;;18.00;98.75;100072.09;5008780;28;19918;-62
2023/07/23 05:40:22;;;;;;;2.97;2.30;;;;;;;17.96;98.61;100068.66;4999986;28;20422;-62
2023/07/23 05:42:47;;;;;;;2.88;1.77;;;;;;;18.04;98.93;100072.78;5067031;28;20405;-63
2023/07/23 05:45:13;;;;;;;4.32;2.15;;;;;;;18.01;98.43;100067.41;5007982;28;20045;-64
2023/07/23 05:47:38;;;;;;;4.70;2.30;;;;;;;18.05;98.43;100068.13;5008125;28;20109;-63
2023/07/23 05:50:04;;;;;;;3.10;1.60;;;;;;;17.97;98.52;100067.50;4995517;28;20018;-62
2023/07/23 05:52:29;;;;;;;3.20;1.58;;;;;;;17.86;100.00;100066.16;5003726;28;20401;-62
2023/07/23 05:54:55;;;;;;;2.58;1.70;;;;;;;17.97;99.69;100064.75;5008079;28;20041;-62
2023/07/23 05:57:20;;;;;;;2.55;1.58;;;;;;;18.09;99.60;100057.91;5001276;28;20027;-62
2023/07/23 05:59:46;;;;;;;2.80;1.60;;;;;;;18.08;100.00;100052.91;4998454;28;20127;-63
2023/07/23 06:02:11;;;;;;;2.65;1.58;;;;;;;18.05;99.82;100057.22;4999694;28;20445;-62
2023/07/23 06:04:39;;;;;;;2.90;1.83;;;;;;;18.02;100.00;100055.34;5003431;28;20044;-64
2023/07/23 06:07:05;;;;;;;2.33;1.58;;;;;;;17.82;100.00;100052.59;4988483;28;20558;-61
2023/07/23 06:09:30;;;;;;;2.30;1.42;;;;;;;17.90;100.00;100053.22;5070877;28;20034;-62
2023/07/23 06:11:56;;;;;;;2.22;1.45;;;;;;;17.97;100.00;100045.69;5007079;28;20474;-62
2023/07/23 06:14:21;;;;;;;4.20;1.38;;;;;;;18.11;99.90;100041.13;4996124;28;20039;-62
2023/07/23 06:16:46;;;;;;;2.15;1.30;;;;;;;18.16;99.56;100041.41;5000945;28;20032;-62
2023/07/23 06:19:12;;;;;;;3.15;1.85;;;;;;;18.19;100.00;100042.53;5001326;28;20027;-62
2023/07/23 06:21:37;;;;;;;1.52;1.23;;;;;;;17.97;100.00;100042.19;5006453;28;20061;-61
2023/07/23 06:24:03;;;;;;;2.28;1.63;;;;;;;18.08;100.00;100040.00;4996190;28;20026;-62
2023/07/23 06:26:49;;;;;;;2.95;1.60;;;;;;;18.17;100.00;100042.19;5003945;28;20460;-62
2023/07/23 06:29:14;;;;;;;2.78;1.92;;;;;;;18.02;100.00;100031.56;5031074;28;20465;-64
2023/07/23 06:31:40;;;;;;;2.08;1.17;;;;;;;18.10;100.00;100039.63;5046818;28;20033;-65
2023/07/23 06:34:05;;;;;;;3.33;1.88;;;;;;;18.31;99.68;100039.91;5049932;28;20033;-61
2023/07/23 06:36:30;;;;;;;2.65;1.83;;;;;;;18.31;100.00;100033.72;5050486;28;20037;-63
2023/07/23 06:38:56;;;;;;;3.63;1.85;;;;;;;18.34;100.00;100032.84;5047673;28;20033;-62
2023/07/23 06:41:21;;;;;;;3.60;1.50;;;;;;;18.30;100.00;100035.66;5043811;28;20037;-62
2023/07/23 06:43:47;;;;;;;2.70;1.60;;;;;;;18.27;99.52;100024.84;5043153;28;20048;-62
2023/07/23 06:46:17;;;;;;;3.83;1.77;;;;;;;17.89;100.00;100022.50;5050966;28;20053;-61
2023/07/23 06:48:42;;;;;;;2.70;1.92;;;;;;;17.81;100.00;100026.53;5024842;28;20045;-62
2023/07/23 06:51:08;;;;;;;2.15;1.85;;;;;;;18.18;100.00;100019.94;5049205;28;20029;-61
2023/07/23 06:53:33;;;;;;;2.95;1.60;;;;;;;18.22;100.00;100023.38;5048978;28;20070;-62
2023/07/23 06:56:02;;;;;;;6.53;1.92;;;;;;;18.40;100.00;100026.50;5031771;28;20063;-61
2023/07/23 06:58:28;;;;;;;4.28;2.17;;;;;;;18.18;100.00;100009.03;5054567;28;20453;-62
2023/07/23 07:00:54;;;;;;;3.13;1.63;;;;;;;18.03;100.00;100016.75;5019150;28;20068;-62
2023/07/23 07:03:20;;;;;;;2.08;1.52;;;;;;;18.08;100.00;100009.28;5046171;28;20068;-62
2023/07/23 07:05:45;;;;;;;3.47;1.95;;;;;;;18.02;100.00;100011.75;5029359;28;20053;-63
2023/07/23 07:08:12;;;;;;;3.55;2.08;;;;;;;18.19;100.00;100002.41;5010222;28;20074;-62
2023/07/23 07:10:37;;;;;;;6.75;2.25;;;;;;;18.27;100.00;100003.81;5002809;28;20034;-61
2023/07/23 07:13:03;;;;;;;3.50;1.80;;;;;;;18.22;100.00;99989.88;4996844;28;20038;-62
2023/07/23 07:15:28;;;;;;;3.70;2.10;;;;;;;18.13;100.00;100001.38;5009722;28;20038;-62
2023/07/23 07:17:53;;;;;;;4.57;2.08;;;;;;;18.18;100.00;99992.69;5010481;28;20509;-65
2023/07/23 07:20:19;;;;;;;3.28;2.05;;;;;;;18.38;100.00;99998.09;5009931;28;20117;-62
2023/07/23 07:22:44;;;;;;;7.80;2.58;;;;;;;18.27;100.00;99989.41;5002616;28;20163;-62
2023/07/23 07:25:10;;;;;;;3.58;1.67;;;;;;;18.33;100.00;99985.72;5009848;28;20034;-63
2023/07/23 07:27:35;;;;;;;4.65;1.98;;;;;;;18.43;99.56;99984.75;5010367;28;20038;-61
2023/07/23 07:30:01;;;;;;;2.45;2.03;;;;;;;18.32;100.00;99988.88;5068298;28;20100;-62
2023/07/23 07:32:26;;;;;;;2.60;1.65;;;;;;;18.30;100.00;99985.81;5007902;28;20044;-63
2023/07/23 07:34:52;;;;;;;2.38;1.95;;;;;;;18.38;100.00;99973.56;5009290;28;20082;-62
2023/07/23 07:37:17;;;;;;;3.42;1.63;;;;;;;18.36;100.00;99981.41;5002400;28;20022;-63
2023/07/23 07:39:43;;;;;;;2.95;1.98;;;;;;;18.15;100.00;99970.97;4997926;28;20524;-62
2023/07/23 07:42:08;;;;;;;3.15;2.00;;;;;;;18.35;100.00;99972.44;4996991;28;20022;-61
2023/07/23 07:44:34;;;;;;;3.80;1.92;;;;;;;18.26;100.00;99975.00;5008999;28;20451;-61
2023/07/23 07:46:59;;;;;;;3.22;1.73;;;;;;;18.43;100.00;99967.63;5072054;28;20131;-61
2023/07/23 07:49:25;;;;;;;4.25;1.50;;;;;;;18.55;100.00;99969.69;5006795;28;20083;-63
2023/07/23 07:51:50;;;;;;;4.90;1.90;;;;;;;18.60;100.00;99967.22;5009371;28;20038;-61
2023/07/23 07:54:16;;;;;;;3.20;2.00;;;;;;;18.61;100.00;99962.53;5009509;28;20466;-61
2023/07/23 07:56:43;;;;;;;3.88;2.25;;;;;;;18.62;100.00;99967.56;5005654;28;20057;-62
2023/07/23 07:59:10;;;;;;;3.10;1.90;;;;;;;18.79;100.00;99968.34;5004839;28;20094;-62
2023/07/23 08:01:35;;;;;;;3.28;1.65;;;;;;;18.60;100.00;99971.94;4999098;28;20054;-63
2023/07/23 08:04:02;;;;;;;4.95;2.03;;;;;;;18.83;100.00;99955.38;5008537;28;20494;-63
2023/07/23 08:06:28;;;;;;;3.25;1.48;;;;;;;18.83;100.00;99953.41;5077270;28;20049;-63
2023/07/23 08:08:57;;;;;;;2.70;1.90;;;;;;;18.97;100.00;99957.75;4990332;28;20406;-63
2023/07/23 08:11:24;;;;;;;3.88;2.17;;;;;;;19.08;100.00;99958.25;5009519;28;20026;-62
2023/07/23 08:13:50;;;;;;;4.35;1.90;;;;;;;19.02;99.57;99956.47;5071269;28;20037;-63
2023/07/23 08:16:17;;;;;;;3.13;1.70;;;;;;;18.93;99.85;99963.28;5005786;28;20034;-62
2023/07/23 08:18:44;;;;;;;4.53;1.70;;;;;;;18.99;100.00;99949.16;4998285;28;20379;-63
2023/07/23 08:21:13;;;;;;;2.78;1.55;;;;;;;18.96;100.00;99947.25;5008852;28;20041;-61
2023/07/23 08:23:59;;;;;;;2.67;1.63;;;;;;;19.08;100.00;99944.59;5008809;28;20038;-62
2023/07/23 08:26:27;;;;;;;1.98;1.55;;;;;;;19.17;100.00;99943.97;5001102;28;20425;-62
2023/07/23 08:29:02;;;;;;;3.42;1.85;;;;;;;19.10;100.00;99941.44;5006752;28;20617;-62
2023/07/23 08:31:27;;;;;;;3.08;1.55;;;;;;;19.01;99.74;99941.28;5009841;28;20046;-61
2023/07/23 08:33:54;;;;;;;4.55;2.22;;;;;;;19.11;100.00;99946.47;5005788;28;20553;-62
2023/07/23 08:36:20;;;;;;;3.17;2.10;;;;;;;19.23;100.00;99943.03;5007632;28;20033;-61
2023/07/23 08:38:46;;;;;;;7.20;1.85;;;;;;;19.14;100.00;99933.94;4997463;28;20041;-61
2023/07/23 08:41:23;;;;;;;3.45;1.80;;;;;;;19.24;100.00;99936.38;5004262;28;20117;-61
2023/07/23 08:44:00;;;;;;;2.70;1.60;;;;;;;19.33;100.00;99942.03;5005690;28;20434;-63
2023/07/23 08:46:27;;;;;;;5.72;2.22;;;;;;;19.34;100.00;99945.50;5007573;28;20025;-62
2023/07/23 08:48:55;;;;;;;2.85;1.80;;;;;;;19.46;100.00;99939.31;5006472;28;20112;-63
2023/07/23 08:51:31;;;;;;;3.00;1.90;;;;;;;19.50;100.00;99940.75;5001968;28;20042;-62
2023/07/23 08:54:01;;;;;;;3.35;1.65;;;;;;;19.39;100.00;99934.84;4987295;28;20500;-63
2023/07/23 08:56:26;;;;;;;2.67;1.55;;;;;;;19.40;100.00;99922.69;5009327;28;20041;-62
2023/07/23 08:58:52;;;;;;;4.40;1.98;;;;;;;19.40;99.70;99933.63;5005297;28;20506;-62
2023/07/23 09:01:18;;;;;;;2.50;1.77;;;;;;;19.34;100.00;99926.38;5000715;28;20402;-62
2023/07/23 09:03:43;;;;;;;4.53;1.95;;;;;;;19.24;100.00;99922.72;5007750;28;20045;-62
2023/07/23 09:06:10;;;;;;;3.78;2.10;;;;;;;19.41;100.00;99931.66;5007588;28;20041;-62
2023/07/23 09:08:37;;;;;;;3.72;2.03;;;;;;;19.58;99.45;99930.41;4998878;28;20033;-63
2023/07/23 09:11:04;;;;;;;2.97;1.70;;;;;;;19.14;100.00;99918.31;5008355;28;20412;-62
2023/07/23 09:13:34;;;;;;;2.80;1.70;;;;;;;19.28;99.64;99909.72;4996042;28;20041;-62
2023/07/23 09:16:00;;;;;;;4.35;1.75;;;;;;;19.41;100.00;99918.00;5001040;28;20035;-62
2023/07/23 09:18:46;;;;;;;7.00;1.67;;;;;;;19.40;100.00;99914.50;5004544;28;20034;-62
2023/07/23 09:21:22;;;;;;;3.97;1.95;;;;;;;19.43;100.00;99929.28;4982570;28;20050;-63
2023/07/23 09:23:50;;;;;;;2.38;1.33;;;;;;;19.49;100.00;99927.53;4979590;28;20074;-62
2023/07/23 09:26:19;;;;;;;3.70;2.15;;;;;;;19.77;99.41;99919.31;4983810;28;20035;-62
2023/07/23 09:28:45;;;;;;;2.88;1.88;;;;;;;19.69;100.00;99917.19;4979790;28;20046;-62
2023/07/23 09:31:11;;;;;;;5.68;2.50;;;;;;;19.89;99.90;99911.53;4976523;28;20130;-63
2023/07/23 09:33:36;;;;;;;5.07;2.70;;;;;;;19.78;99.32;99914.59;4974516;28;20034;-62
2023/07/23 09:36:05;;;;;;;5.18;1.80;;;;;;;19.70;99.53;99911.28;4976286;28;20042;-62
2023/07/23 09:38:32;;;;;;;5.28;2.00;;;;;;;19.56;99.97;99913.69;4982414;28;20059;-62
2023/07/23 09:40:59;;;;;;;3.03;2.05;;;;;;;19.73;100.00;99915.91;4982715;28;20061;-62
2023/07/23 09:43:24;;;;;;;3.78;2.05;;;;;;;19.94;98.97;99909.03;4981440;28;20563;-61
2023/07/23 09:45:50;;;;;;;3.85;2.88;;;;;;;20.09;98.19;99909.38;4975621;28;20142;-61
2023/07/23 09:48:17;;;;;;;2.67;1.77;;;;;;;19.62;100.00;99912.72;4977159;28;20050;-62
2023/07/23 09:50:42;;;;;;;5.57;2.10;;;;;;;19.81;99.25;99916.47;4982547;28;20048;-63
2023/07/23 09:53:09;;;;;;;4.20;2.03;;;;;;;19.71;100.00;99918.31;4962342;28;20031;-63
2023/07/23 09:55:36;;;;;;;3.78;2.03;;;;;;;19.66;100.00;99918.84;4981513;28;20435;-64
2023/07/23 09:58:02;;;;;;;5.30;2.00;;;;;;;19.71;100.00;99912.84;4995204;28;20045;-62
2023/07/23 10:00:28;;;;;;;3.80;1.80;;;;;;;19.84;100.00;99920.28;5007635;28;20062;-63
2023/07/23 10:02:55;;;;;;;5.72;2.10;;;;;;;19.93;100.00;99914.94;5070167;28;20227;-62
2023/07/23 10:05:23;;;;;;;4.57;2.20;;;;;;;20.04;100.00;99918.88;4997089;28;20033;-62
2023/07/23 10:07:48;;;;;;;3.97;2.22;;;;;;;20.36;98.58;99912.47;4998731;28;20556;-62
2023/07/23 10:10:15;;;;;;;6.30;2.40;;;;;;;20.14;100.00;99925.22;5001779;28;20200;-62
2023/07/23 10:12:40;;;;;;;5.30;2.83;;;;;;;19.92;100.00;99914.16;5005661;28;20054;-63
2023/07/23 10:15:10;;;;;;;10.50;2.65;;;;;;;20.30;99.20;99919.69;5003004;28;20151;-63
2023/07/23 10:17:40;;;;;;;3.90;2.28;;;;;;;20.14;100.00;99908.81;5071278;28;20548;-62
2023/07/23 10:20:09;;;;;;;4.65;2.50;;;;;;;20.22;100.00;99910.94;5065167;28;20043;-63
2023/07/23 10:22:37;;;;;;;5.55;2.60;;;;;;;20.12;100.00;99903.81;5062752;28;20026;-64
2023/07/23 10:25:32;;;;;;;3.80;2.10;;;;;;;20.30;100.00;99911.50;5006554;28;20059;-63
2023/07/23 10:28:07;;;;;;;3.45;2.05;;;;;;;20.52;100.00;99906.84;5063335;28;20046;-62
2023/07/23 10:30:34;;;;;;;7.80;2.25;;;;;;;20.59;100.00;99906.63;4997219;28;20038;-62
2023/07/23 10:33:11;;;;;;;4.53;2.55;;;;;;;20.75;99.09;99905.72;5006699;28;20030;-65
2023/07/23 10:35:48;;;;;;;5.28;3.05;;;;;;;20.77;98.38;99901.31;5074825;28;20048;-63
2023/07/23 10:38:24;;;;;;;5.70;2.88;;;;;;;20.51;99.00;99897.91;5001491;28;20046;-62
2023/07/23 10:41:10;;;;;;;6.25;2.58;;;;;;;20.71;100.00;99905.09;5010097;28;20037;-62
2023/07/23 10:43:48;;;;;;;2.83;1.77;;;;;;;20.64;100.00;99909.56;5044961;28;20300;-62
2023/07/23 10:46:18;;;;;;;4.22;2.60;;;;;;;20.90;99.90;99891.13;5053942;28;20171;-62
2023/07/23 10:48:44;;;;;;;4.38;2.45;;;;;;;21.11;98.29;99892.38;5051754;28;20037;-62
2023/07/23 10:51:12;;;;;;;4.45;2.30;;;;;;;20.92;98.87;99896.16;5034413;28;20029;-62
2023/07/23 10:54:05;;;;;;;3.85;2.17;;;;;;;20.83;98.24;99890.59;5054941;28;20646;-62
2023/07/23 10:56:35;;;;;;;6.13;2.13;;;;;;;20.93;99.38;99892.97;5055879;28;20612;-62
2023/07/23 10:59:12;;;;;;;5.33;2.30;;;;;;;20.97;99.91;99884.63;5050998;28;20080;-63
2023/07/23 11:01:42;;;;;;;3.40;2.13;;;;;;;21.07;97.67;99891.72;5049766;28;20295;-65
2023/07/23 11:04:15;;;;;;;5.82;2.60;;;;;;;20.98;98.38;99886.91;5042379;28;20056;-62
2023/07/23 11:07:00;;;;;;;5.25;2.88;;;;;;;20.72;99.87;99877.25;5051092;28;20529;-63
2023/07/23 11:09:37;;;;;;;3.03;2.30;;;;;;;20.92;99.80;99876.97;5044066;28;20891;-63
2023/07/23 11:12:05;;;;;;;5.15;2.92;;;;;;;21.19;99.18;99875.25;5047662;28;20116;-62
2023/07/23 11:14:32;;;;;;;3.17;1.90;;;;;;;21.44;98.69;99872.38;5057597;28;20115;-62
2023/07/23 11:16:59;;;;;;;4.75;2.45;;;;;;;21.69;97.67;99874.19;5054320;28;20071;-62
2023/07/23 11:19:26;;;;;;;5.82;2.42;;;;;;;21.75;96.32;99874.38;5050251;28;20032;-62
2023/07/23 11:22:03;;;;;;;3.33;1.60;;;;;;;21.68;97.77;99880.13;5000416;28;20022;-63
2023/07/23 11:24:30;;;;;;;6.85;2.50;;;;;;;21.79;96.34;99883.22;5073309;28;20091;-62